createdAt,value
2018-10-07T00:00:31.248Z,16.07
2018-10-07T00:01:31.085Z,16.07
2018-10-07T00:02:31.054Z,16.05
2018-10-07T00:03:31.199Z,16.04
2018-10-07T00:04:31.071Z,16.01
2018-10-07T00:05:31.051Z,16.01
2018-10-07T00:06:31.497Z,15.99
2018-10-07T00:07:31.227Z,16.01
2018-10-07T00:08:31.124Z,15.98
2018-10-07T00:09:31.090Z,15.97
2018-10-07T00:10:31.073Z,15.95
2018-10-07T00:11:31.064Z,15.95
2018-10-07T00:12:31.070Z,15.95
2018-10-07T00:13:31.042Z,15.92
2018-10-07T00:14:31.212Z,15.9
2018-10-07T00:15:31.107Z,15.9
2018-10-07T00:16:31.084Z,15.9
2018-10-07T00:17:31.073Z,15.88
2018-10-07T00:18:31.060Z,15.91
2018-10-07T00:19:31.050Z,15.9
2018-10-07T00:20:31.043Z,15.9
2018-10-07T00:21:31.054Z,15.88
2018-10-07T00:22:31.110Z,15.87
2018-10-07T00:23:31.063Z,15.85
2018-10-07T00:24:31.073Z,15.84
2018-10-07T00:25:31.043Z,15.84
2018-10-07T00:26:31.050Z,15.84
2018-10-07T00:27:31.136Z,15.8
2018-10-07T00:28:31.185Z,15.8
2018-10-07T00:29:31.082Z,15.81
2018-10-07T00:30:31.188Z,15.78
2018-10-07T00:31:31.052Z,15.82
2018-10-07T00:32:31.409Z,15.77
2018-10-07T00:33:31.033Z,15.8
2018-10-07T00:34:31.424Z,15.78
2018-10-07T00:35:31.217Z,15.8
2018-10-07T00:36:31.016Z,15.78
2018-10-07T00:37:31.043Z,15.77
2018-10-07T00:38:31.345Z,15.74
2018-10-07T00:39:31.342Z,15.74
2018-10-07T00:40:31.260Z,15.73
2018-10-07T00:41:31.025Z,15.7
2018-10-07T00:42:31.031Z,15.69
2018-10-07T00:43:31.074Z,15.69
2018-10-07T00:44:31.416Z,15.67
2018-10-07T00:45:31.089Z,15.67
2018-10-07T00:46:31.486Z,15.66
2018-10-07T00:47:31.045Z,15.64
2018-10-07T00:48:31.176Z,15.63
2018-10-07T00:49:31.227Z,15.63
2018-10-07T00:50:31.408Z,15.62
2018-10-07T00:51:31.450Z,15.59
2018-10-07T00:52:31.558Z,15.62
2018-10-07T00:53:31.028Z,15.59
2018-10-07T00:54:31.051Z,15.57
2018-10-07T00:55:31.114Z,15.59
2018-10-07T00:56:31.193Z,15.57
2018-10-07T00:57:31.035Z,15.54
2018-10-07T00:58:31.210Z,15.53
2018-10-07T00:59:31.005Z,15.54
2018-10-07T01:00:31.089Z,15.53
2018-10-07T01:01:31.219Z,15.54
2018-10-07T01:02:31.297Z,15.5
2018-10-07T01:03:31.111Z,15.5
2018-10-07T01:04:31.305Z,15.52
2018-10-07T01:05:31.317Z,15.52
2018-10-07T01:06:31.058Z,15.5
2018-10-07T01:07:31.044Z,15.52
2018-10-07T01:08:30.979Z,15.49
2018-10-07T01:09:31.085Z,15.49
2018-10-07T01:10:31.069Z,15.45
2018-10-07T01:11:31.066Z,15.43
2018-10-07T01:12:31.264Z,15.46
2018-10-07T01:13:30.999Z,15.43
2018-10-07T01:14:31.276Z,15.45
2018-10-07T01:15:31.208Z,15.42
2018-10-07T01:16:31.091Z,15.42
2018-10-07T01:17:31.014Z,15.41
2018-10-07T01:18:31.011Z,15.38
2018-10-07T01:19:30.998Z,15.36
2018-10-07T01:20:31.012Z,15.35
2018-10-07T01:21:31.349Z,15.35
2018-10-07T01:22:31.009Z,15.35
2018-10-07T01:23:31.127Z,15.34
2018-10-07T01:24:30.985Z,15.32
2018-10-07T01:25:30.976Z,15.31
2018-10-07T01:26:31.046Z,15.31
2018-10-07T01:27:30.951Z,15.31
2018-10-07T01:28:30.949Z,15.29
2018-10-07T01:29:31.157Z,15.26
2018-10-07T01:30:31.097Z,15.26
2018-10-07T01:31:31.022Z,15.28
2018-10-07T01:32:31.079Z,15.22
2018-10-07T01:33:31.205Z,15.23
2018-10-07T01:34:31.094Z,15.22
2018-10-07T01:35:31.079Z,15.22
2018-10-07T01:36:30.965Z,15.21
2018-10-07T01:37:30.964Z,15.19
2018-10-07T01:38:30.984Z,15.18
2018-10-07T01:39:30.986Z,15.17
2018-10-07T01:40:31.025Z,15.19
2018-10-07T01:41:31.113Z,15.14
2018-10-07T01:42:30.975Z,15.17
2018-10-07T01:43:31.026Z,15.17
2018-10-07T01:44:30.970Z,15.17
2018-10-07T01:45:30.974Z,15.14
2018-10-07T01:46:30.997Z,15.14
2018-10-07T01:47:30.949Z,15.14
2018-10-07T01:48:30.956Z,15.14
2018-10-07T01:49:30.973Z,15.12
2018-10-07T01:50:30.993Z,15.08
2018-10-07T01:51:31.008Z,15.09
2018-10-07T01:52:30.966Z,15.09
2018-10-07T01:53:31.017Z,15.09
2018-10-07T01:54:30.974Z,15.07
2018-10-07T01:55:31.325Z,15.08
2018-10-07T01:56:31.456Z,15.07
2018-10-07T01:57:31.002Z,15.07
2018-10-07T01:58:31.038Z,15.05
2018-10-07T01:59:31.908Z,15.05
2018-10-07T02:00:30.950Z,15.02
2018-10-07T02:01:31.193Z,15.01
2018-10-07T02:02:31.191Z,14.98
2018-10-07T02:03:31.308Z,15
2018-10-07T02:04:31.080Z,15
2018-10-07T02:05:31.080Z,15
2018-10-07T02:06:31.119Z,14.98
2018-10-07T02:07:31.173Z,14.98
2018-10-07T02:08:30.969Z,14.97
2018-10-07T02:09:30.933Z,14.95
2018-10-07T02:10:31.287Z,14.95
2018-10-07T02:11:31.061Z,14.95
2018-10-07T02:12:31.010Z,14.92
2018-10-07T02:13:31.214Z,14.92
2018-10-07T02:14:31.026Z,14.95
2018-10-07T02:15:31.019Z,14.95
2018-10-07T02:16:31.237Z,14.92
2018-10-07T02:17:31.086Z,14.92
2018-10-07T02:18:31.171Z,14.9
2018-10-07T02:19:31.122Z,14.9
2018-10-07T02:20:30.926Z,14.91
2018-10-07T02:21:31.023Z,14.92
2018-10-07T02:22:31.020Z,14.92
2018-10-07T02:23:30.933Z,14.9
2018-10-07T02:24:30.854Z,14.88
2018-10-07T02:25:30.924Z,14.86
2018-10-07T02:26:31.032Z,14.84
2018-10-07T02:27:31.186Z,14.86
2018-10-07T02:28:30.999Z,14.86
2018-10-07T02:29:30.978Z,14.81
2018-10-07T02:30:30.991Z,14.8
2018-10-07T02:31:31.201Z,14.81
2018-10-07T02:32:30.959Z,14.8
2018-10-07T02:33:31.113Z,14.76
2018-10-07T02:34:30.918Z,14.77
2018-10-07T02:35:31.265Z,14.76
2018-10-07T02:36:30.941Z,14.77
2018-10-07T02:37:30.882Z,14.74
2018-10-07T02:38:31.036Z,14.76
2018-10-07T02:39:31.006Z,14.74
2018-10-07T02:40:30.947Z,14.72
2018-10-07T02:41:31.691Z,14.7
2018-10-07T02:42:31.347Z,14.7
2018-10-07T02:43:30.930Z,14.7
2018-10-07T02:44:31.040Z,14.69
2018-10-07T02:45:31.032Z,14.67
2018-10-07T02:46:31.122Z,14.66
2018-10-07T02:47:31.114Z,14.67
2018-10-07T02:48:31.116Z,14.7
2018-10-07T02:49:30.964Z,14.67
2018-10-07T02:50:30.962Z,14.64
2018-10-07T02:51:30.965Z,14.63
2018-10-07T02:52:31.030Z,14.62
2018-10-07T02:53:30.892Z,14.59
2018-10-07T02:54:31.221Z,14.58
2018-10-07T02:55:30.865Z,14.58
2018-10-07T02:56:30.957Z,14.6
2018-10-07T02:57:30.852Z,14.55
2018-10-07T02:58:31.004Z,14.53
2018-10-07T02:59:30.977Z,14.52
2018-10-07T03:00:31.213Z,14.51
2018-10-07T03:01:31.280Z,14.52
2018-10-07T03:02:30.830Z,14.51
2018-10-07T03:03:31.119Z,14.48
2018-10-07T03:04:31.121Z,14.48
2018-10-07T03:05:30.872Z,14.43
2018-10-07T03:06:30.873Z,14.4
2018-10-07T03:07:30.830Z,14.39
2018-10-07T03:08:30.813Z,14.4
2018-10-07T03:09:30.860Z,14.39
2018-10-07T03:10:30.895Z,14.36
2018-10-07T03:11:30.961Z,14.38
2018-10-07T03:12:31.016Z,14.35
2018-10-07T03:13:30.829Z,14.33
2018-10-07T03:14:30.825Z,14.36
2018-10-07T03:15:31.091Z,14.33
2018-10-07T03:16:31.098Z,14.33
2018-10-07T03:17:31.045Z,14.32
2018-10-07T03:18:30.802Z,14.31
2018-10-07T03:19:30.914Z,14.33
2018-10-07T03:20:30.818Z,14.33
2018-10-07T03:21:30.839Z,14.33
2018-10-07T03:22:31.166Z,14.31
2018-10-07T03:23:30.868Z,14.31
2018-10-07T03:24:30.824Z,14.31
2018-10-07T03:25:30.908Z,14.32
2018-10-07T03:26:31.060Z,14.28
2018-10-07T03:27:30.830Z,14.29
2018-10-07T03:28:31.118Z,14.28
2018-10-07T03:29:31.055Z,14.25
2018-10-07T03:30:31.399Z,14.28
2018-10-07T03:31:31.096Z,14.25
2018-10-07T03:32:31.114Z,14.25
2018-10-07T03:33:30.781Z,14.22
2018-10-07T03:34:31.021Z,14.21
2018-10-07T03:35:30.853Z,14.21
2018-10-07T03:36:31.130Z,14.18
2018-10-07T03:37:31.036Z,14.18
2018-10-07T03:38:30.910Z,14.14
2018-10-07T03:39:31.057Z,14.12
2018-10-07T03:40:30.811Z,14.12
2018-10-07T03:41:30.802Z,14.12
2018-10-07T03:42:31.077Z,14.11
2018-10-07T03:43:30.792Z,14.12
2018-10-07T03:44:30.776Z,14.12
2018-10-07T03:45:30.787Z,14.08
2018-10-07T03:46:31.101Z,14.08
2018-10-07T03:47:30.878Z,14.05
2018-10-07T03:48:30.819Z,14.08
2018-10-07T03:49:31.013Z,14.04
2018-10-07T03:50:30.904Z,14.04
2018-10-07T03:51:30.989Z,14.04
2018-10-07T03:52:30.807Z,14.07
2018-10-07T03:53:30.816Z,14.04
2018-10-07T03:54:30.754Z,14.04
2018-10-07T03:55:30.954Z,14.04
2018-10-07T03:56:31.076Z,14.02
2018-10-07T03:57:31.136Z,14.05
2018-10-07T03:58:31.076Z,14.04
2018-10-07T03:59:30.841Z,14.02
2018-10-07T04:00:30.825Z,14
2018-10-07T04:01:30.905Z,14
2018-10-07T04:02:31.005Z,14.01
2018-10-07T04:03:30.747Z,13.98
2018-10-07T04:04:30.723Z,13.97
2018-10-07T04:05:30.937Z,13.96
2018-10-07T04:06:30.942Z,13.96
2018-10-07T04:07:31.089Z,13.96
2018-10-07T04:08:30.896Z,13.96
2018-10-07T04:09:30.853Z,13.93
2018-10-07T04:10:30.870Z,13.97
2018-10-07T04:11:30.802Z,13.96
2018-10-07T04:12:31.462Z,13.97
2018-10-07T04:13:30.785Z,13.93
2018-10-07T04:14:30.811Z,13.96
2018-10-07T04:15:30.807Z,13.97
2018-10-07T04:16:31.107Z,13.96
2018-10-07T04:17:31.104Z,13.97
2018-10-07T04:18:31.119Z,13.96
2018-10-07T04:19:31.053Z,13.97
2018-10-07T04:20:30.750Z,13.93
2018-10-07T04:21:31.031Z,13.93
2018-10-07T04:22:30.835Z,13.93
2018-10-07T04:23:30.806Z,13.93
2018-10-07T04:24:31.049Z,13.93
2018-10-07T04:25:31.089Z,13.91
2018-10-07T04:26:30.731Z,13.93
2018-10-07T04:27:31.063Z,13.93
2018-10-07T04:28:30.972Z,13.96
2018-10-07T04:29:30.758Z,13.93
2018-10-07T04:30:31.103Z,13.94
2018-10-07T04:31:30.710Z,13.93
2018-10-07T04:32:30.779Z,13.91
2018-10-07T04:33:30.701Z,13.93
2018-10-07T04:34:30.718Z,13.89
2018-10-07T04:35:30.719Z,13.9
2018-10-07T04:36:30.684Z,13.9
2018-10-07T04:37:30.723Z,13.87
2018-10-07T04:38:30.702Z,13.89
2018-10-07T04:39:30.792Z,13.9
2018-10-07T04:40:30.756Z,13.87
2018-10-07T04:41:30.707Z,13.89
2018-10-07T04:42:30.761Z,13.86
2018-10-07T04:43:30.708Z,13.87
2018-10-07T04:44:30.704Z,13.84
2018-10-07T04:45:30.724Z,13.83
2018-10-07T04:46:31.075Z,13.82
2018-10-07T04:47:30.707Z,13.77
2018-10-07T04:48:30.782Z,13.77
2018-10-07T04:49:30.736Z,13.77
2018-10-07T04:50:30.733Z,13.79
2018-10-07T04:51:30.725Z,13.76
2018-10-07T04:52:30.698Z,13.7
2018-10-07T04:53:30.748Z,13.7
2018-10-07T04:54:30.903Z,13.72
2018-10-07T04:55:30.955Z,13.69
2018-10-07T04:56:30.796Z,13.7
2018-10-07T04:57:30.836Z,13.67
2018-10-07T04:58:30.667Z,13.69
2018-10-07T04:59:30.676Z,13.69
2018-10-07T05:00:30.993Z,13.69
2018-10-07T05:01:30.707Z,13.66
2018-10-07T05:02:30.685Z,13.72
2018-10-07T05:03:31.045Z,13.69
2018-10-07T05:04:30.774Z,13.64
2018-10-07T05:05:31.091Z,13.67
2018-10-07T05:06:30.699Z,13.66
2018-10-07T05:07:30.713Z,13.64
2018-10-07T05:08:30.875Z,13.63
2018-10-07T05:09:31.254Z,13.6
2018-10-07T05:10:30.695Z,13.6
2018-10-07T05:11:30.965Z,13.59
2018-10-07T05:12:31.222Z,13.6
2018-10-07T05:13:30.745Z,13.59
2018-10-07T05:14:30.620Z,13.59
2018-10-07T05:15:31.202Z,13.62
2018-10-07T05:16:30.720Z,13.59
2018-10-07T05:17:30.882Z,13.59
2018-10-07T05:18:30.642Z,13.59
2018-10-07T05:19:30.805Z,13.59
2018-10-07T05:20:30.831Z,13.56
2018-10-07T05:21:30.685Z,13.5
2018-10-07T05:22:30.651Z,13.46
2018-10-07T05:23:30.958Z,13.46
2018-10-07T05:24:30.757Z,13.45
2018-10-07T05:25:30.965Z,13.43
2018-10-07T05:26:30.661Z,13.43
2018-10-07T05:27:30.787Z,13.36
2018-10-07T05:28:30.631Z,13.29
2018-10-07T05:29:30.982Z,13.28
2018-10-07T05:30:30.807Z,13.28
2018-10-07T05:31:31.036Z,13.27
2018-10-07T05:32:30.660Z,13.27
2018-10-07T05:33:31.045Z,13.28
2018-10-07T05:34:30.626Z,13.28
2018-10-07T05:35:30.832Z,13.29
2018-10-07T05:36:30.738Z,13.31
2018-10-07T05:37:30.626Z,13.31
2018-10-07T05:38:30.683Z,13.29
2018-10-07T05:39:30.635Z,13.25
2018-10-07T05:40:30.652Z,13.27
2018-10-07T05:41:30.814Z,13.22
2018-10-07T05:42:30.695Z,13.19
2018-10-07T05:43:30.632Z,13.15
2018-10-07T05:44:31.082Z,13.17
2018-10-07T05:45:30.657Z,13.14
2018-10-07T05:46:30.802Z,13.15
2018-10-07T05:47:30.605Z,13.17
2018-10-07T05:48:30.631Z,13.14
2018-10-07T05:49:30.695Z,13.15
2018-10-07T05:50:30.832Z,13.15
2018-10-07T05:51:30.656Z,13.14
2018-10-07T05:52:30.747Z,13.14
2018-10-07T05:53:30.645Z,13.14
2018-10-07T05:54:31.018Z,13.11
2018-10-07T05:55:30.754Z,13.08
2018-10-07T05:56:31.072Z,13.03
2018-10-07T05:57:31.084Z,12.96
2018-10-07T05:58:30.888Z,12.84
2018-10-07T05:59:30.690Z,12.77
2018-10-07T06:00:30.730Z,12.76
2018-10-07T06:01:31.127Z,12.76
2018-10-07T06:02:30.611Z,12.77
2018-10-07T06:03:30.605Z,12.8
2018-10-07T06:04:30.581Z,12.83
2018-10-07T06:05:30.617Z,12.82
2018-10-07T06:06:30.601Z,12.84
2018-10-07T06:07:30.751Z,12.87
2018-10-07T06:08:30.603Z,12.87
2018-10-07T06:09:30.648Z,12.91
2018-10-07T06:10:30.605Z,12.91
2018-10-07T06:11:30.610Z,12.91
2018-10-07T06:12:30.584Z,12.91
2018-10-07T06:13:30.612Z,12.91
2018-10-07T06:14:30.631Z,12.93
2018-10-07T06:15:30.597Z,12.88
2018-10-07T06:16:30.919Z,12.91
2018-10-07T06:17:30.612Z,12.94
2018-10-07T06:18:30.565Z,12.96
2018-10-07T06:19:30.567Z,12.96
2018-10-07T06:20:30.620Z,12.94
2018-10-07T06:21:30.972Z,13.01
2018-10-07T06:22:30.584Z,13.01
2018-10-07T06:23:30.653Z,13.01
2018-10-07T06:24:30.875Z,13.04
2018-10-07T06:25:30.806Z,13.04
2018-10-07T06:26:30.571Z,13.07
2018-10-07T06:27:31.094Z,13.08
2018-10-07T06:28:30.807Z,13.11
2018-10-07T06:29:30.754Z,13.11
2018-10-07T06:30:30.716Z,13.13
2018-10-07T06:31:30.668Z,13.13
2018-10-07T06:32:30.574Z,13.14
2018-10-07T06:33:30.589Z,13.17
2018-10-07T06:34:31.021Z,13.18
2018-10-07T06:35:30.628Z,13.18
2018-10-07T06:36:30.601Z,13.21
2018-10-07T06:37:30.580Z,13.22
2018-10-07T06:38:30.768Z,13.22
2018-10-07T06:39:30.567Z,13.28
2018-10-07T06:40:30.800Z,13.27
2018-10-07T06:41:30.635Z,13.29
2018-10-07T06:42:30.624Z,13.34
2018-10-07T06:43:30.882Z,13.35
2018-10-07T06:44:30.698Z,13.36
2018-10-07T06:45:31.027Z,13.38
2018-10-07T06:46:30.568Z,13.39
2018-10-07T06:47:30.818Z,13.42
2018-10-07T06:48:30.623Z,13.41
2018-10-07T06:49:30.642Z,13.47
2018-10-07T06:50:30.669Z,13.49
2018-10-07T06:51:30.932Z,13.49
2018-10-07T06:52:30.563Z,13.52
2018-10-07T06:53:30.514Z,13.55
2018-10-07T06:54:30.537Z,13.57
2018-10-07T06:55:30.576Z,13.59
2018-10-07T06:56:30.546Z,13.62
2018-10-07T06:57:30.564Z,13.64
2018-10-07T06:58:30.526Z,13.66
2018-10-07T06:59:30.733Z,13.69
2018-10-07T07:00:30.519Z,13.72
2018-10-07T07:01:30.546Z,13.72
2018-10-07T07:02:30.527Z,13.74
2018-10-07T07:03:30.725Z,13.76
2018-10-07T07:04:30.922Z,13.79
2018-10-07T07:05:30.520Z,13.8
2018-10-07T07:06:30.790Z,13.82
2018-10-07T07:07:30.735Z,13.84
2018-10-07T07:08:30.503Z,13.9
2018-10-07T07:09:30.564Z,13.9
2018-10-07T07:10:30.637Z,13.91
2018-10-07T07:11:30.707Z,13.96
2018-10-07T07:12:30.498Z,14
2018-10-07T07:13:30.645Z,14.01
2018-10-07T07:14:30.591Z,14.05
2018-10-07T07:15:30.738Z,14.07
2018-10-07T07:16:30.698Z,14.11
2018-10-07T07:17:30.481Z,14.12
2018-10-07T07:18:30.585Z,14.15
2018-10-07T07:19:30.524Z,14.19
2018-10-07T07:20:30.827Z,14.22
2018-10-07T07:21:30.500Z,14.27
2018-10-07T07:22:30.677Z,14.31
2018-10-07T07:23:30.550Z,14.33
2018-10-07T07:24:30.934Z,14.38
2018-10-07T07:25:30.659Z,14.42
2018-10-07T07:26:30.684Z,14.43
2018-10-07T07:27:30.700Z,14.48
2018-10-07T07:28:30.537Z,14.52
2018-10-07T07:29:30.512Z,14.58
2018-10-07T07:30:30.552Z,14.6
2018-10-07T07:31:30.827Z,14.66
2018-10-07T07:32:30.838Z,14.67
2018-10-07T07:33:30.483Z,14.7
2018-10-07T07:34:30.489Z,14.74
2018-10-07T07:35:30.494Z,14.77
2018-10-07T07:36:30.501Z,14.81
2018-10-07T07:37:30.506Z,14.8
2018-10-07T07:38:30.506Z,14.86
2018-10-07T07:39:30.450Z,14.87
2018-10-07T07:40:30.534Z,14.88
2018-10-07T07:41:30.531Z,14.9
2018-10-07T07:42:30.898Z,14.94
2018-10-07T07:43:30.427Z,14.98
2018-10-07T07:44:30.456Z,15
2018-10-07T07:45:30.548Z,15
2018-10-07T07:46:30.451Z,15.01
2018-10-07T07:47:30.466Z,15.04
2018-10-07T07:48:30.824Z,15.04
2018-10-07T07:49:30.441Z,15.08
2018-10-07T07:50:30.461Z,15.14
2018-10-07T07:51:30.743Z,15.15
2018-10-07T07:52:30.402Z,15.19
2018-10-07T07:53:30.573Z,15.21
2018-10-07T07:54:30.476Z,15.25
2018-10-07T07:55:30.666Z,15.29
2018-10-07T07:56:30.492Z,15.32
2018-10-07T07:57:30.495Z,15.36
2018-10-07T07:58:30.503Z,15.39
2018-10-07T07:59:30.553Z,15.42
2018-10-07T08:00:30.686Z,15.31
2018-10-07T08:01:30.471Z,15.35
2018-10-07T08:02:30.557Z,15.36
2018-10-07T08:03:30.435Z,15.38
2018-10-07T08:04:30.528Z,15.42
2018-10-07T08:05:30.436Z,15.43
2018-10-07T08:06:30.614Z,15.41
2018-10-07T08:07:30.581Z,15.39
2018-10-07T08:08:30.809Z,15.36
2018-10-07T08:09:30.615Z,15.36
2018-10-07T08:10:30.421Z,15.38
2018-10-07T08:11:30.572Z,15.41
2018-10-07T08:12:30.417Z,15.45
2018-10-07T08:13:30.454Z,15.46
2018-10-07T08:14:30.410Z,15.46
2018-10-07T08:15:30.490Z,15.52
2018-10-07T08:16:30.429Z,15.52
2018-10-07T08:17:30.735Z,15.54
2018-10-07T08:18:30.393Z,15.56
2018-10-07T08:19:30.463Z,15.59
2018-10-07T08:20:30.369Z,15.63
2018-10-07T08:21:30.595Z,15.64
2018-10-07T08:22:30.451Z,15.64
2018-10-07T08:23:31.003Z,15.69
2018-10-07T08:24:30.565Z,15.7
2018-10-07T08:25:30.553Z,15.71
2018-10-07T08:26:30.551Z,15.74
2018-10-07T08:27:30.557Z,15.73
2018-10-07T08:28:30.536Z,15.77
2018-10-07T08:29:30.616Z,15.76
2018-10-07T08:30:30.686Z,15.74
2018-10-07T08:31:30.435Z,15.77
2018-10-07T08:32:30.429Z,15.8
2018-10-07T08:33:30.581Z,15.81
2018-10-07T08:34:30.457Z,15.81
2018-10-07T08:35:30.564Z,15.84
2018-10-07T08:36:30.546Z,15.85
2018-10-07T08:37:30.951Z,15.87
2018-10-07T08:38:30.534Z,15.87
2018-10-07T08:39:30.498Z,15.87
2018-10-07T08:40:30.468Z,15.91
2018-10-07T08:41:30.421Z,15.91
2018-10-07T08:42:30.452Z,15.92
2018-10-07T08:43:30.603Z,15.91
2018-10-07T08:44:30.426Z,15.97
2018-10-07T08:45:30.371Z,15.97
2018-10-07T08:46:30.526Z,15.98
2018-10-07T08:47:30.516Z,15.98
2018-10-07T08:48:30.721Z,16.01
2018-10-07T08:49:30.532Z,16.02
2018-10-07T08:50:30.373Z,16.02
2018-10-07T08:51:30.458Z,16.01
2018-10-07T08:52:30.650Z,16.01
2018-10-07T08:53:30.824Z,15.98
2018-10-07T08:54:30.477Z,16.05
2018-10-07T08:55:30.477Z,16.02
2018-10-07T08:56:30.823Z,16.05
2018-10-07T08:57:30.432Z,16.07
2018-10-07T08:58:30.450Z,16.07
2018-10-07T08:59:30.519Z,16.09
2018-10-07T09:00:30.427Z,16.12
2018-10-07T09:01:30.339Z,16.15
2018-10-07T09:02:30.357Z,16.15
2018-10-07T09:03:30.354Z,16.21
2018-10-07T09:04:30.792Z,16.24
2018-10-07T09:05:30.363Z,16.21
2018-10-07T09:06:30.339Z,16.24
2018-10-07T09:07:30.458Z,16.25
2018-10-07T09:08:30.364Z,16.29
2018-10-07T09:09:30.383Z,16.28
2018-10-07T09:10:30.511Z,16.32
2018-10-07T09:11:30.434Z,16.33
2018-10-07T09:12:30.386Z,16.36
2018-10-07T09:13:30.375Z,16.42
2018-10-07T09:14:30.539Z,16.43
2018-10-07T09:15:30.575Z,16.47
2018-10-07T09:16:30.373Z,16.49
2018-10-07T09:17:30.352Z,16.46
2018-10-07T09:18:30.390Z,16.47
2018-10-07T09:19:30.521Z,16.52
2018-10-07T09:20:30.518Z,16.52
2018-10-07T09:21:30.650Z,16.56
2018-10-07T09:22:31.043Z,16.54
2018-10-07T09:23:30.405Z,16.6
2018-10-07T09:24:30.544Z,16.66
2018-10-07T09:25:30.657Z,16.71
2018-10-07T09:26:30.508Z,16.73
2018-10-07T09:27:31.043Z,16.73
2018-10-07T09:28:30.664Z,16.74
2018-10-07T09:29:30.570Z,16.71
2018-10-07T09:30:30.420Z,16.74
2018-10-07T09:31:31.005Z,16.77
2018-10-07T09:32:31.026Z,16.86
2018-10-07T09:33:30.400Z,16.86
2018-10-07T09:34:30.512Z,16.92
2018-10-07T09:35:30.611Z,16.92
2018-10-07T09:36:30.515Z,16.94
2018-10-07T09:37:30.634Z,16.98
2018-10-07T09:38:30.464Z,16.99
2018-10-07T09:39:30.824Z,16.95
2018-10-07T09:40:30.330Z,16.99
2018-10-07T09:41:30.387Z,17.02
2018-10-07T09:42:30.629Z,17.07
2018-10-07T09:43:30.487Z,17.08
2018-10-07T09:44:30.671Z,17.12
2018-10-07T09:45:30.677Z,17.22
2018-10-07T09:46:30.582Z,17.23
2018-10-07T09:47:30.499Z,17.21
2018-10-07T09:48:30.405Z,17.23
2018-10-07T09:49:30.610Z,17.25
2018-10-07T09:50:30.557Z,17.29
2018-10-07T09:51:30.624Z,17.29
2018-10-07T09:52:30.335Z,17.36
2018-10-07T09:53:30.652Z,17.43
2018-10-07T09:54:30.446Z,17.53
2018-10-07T09:55:30.284Z,17.61
2018-10-07T09:56:30.582Z,17.67
2018-10-07T09:57:30.472Z,17.7
2018-10-07T09:58:30.360Z,17.81
2018-10-07T09:59:30.591Z,17.82
2018-10-07T10:00:30.494Z,17.88
2018-10-07T10:01:30.542Z,17.88
2018-10-07T10:02:30.614Z,17.87
2018-10-07T10:03:30.735Z,17.89
2018-10-07T10:04:31.145Z,17.88
2018-10-07T10:05:30.516Z,17.91
2018-10-07T10:06:30.420Z,17.88
2018-10-07T10:07:30.654Z,17.95
2018-10-07T10:08:30.383Z,17.98
2018-10-07T10:09:30.646Z,18.08
2018-10-07T10:10:30.556Z,18.13
2018-10-07T10:11:30.469Z,18.08
2018-10-07T10:12:30.508Z,18.09
2018-10-07T10:13:30.275Z,18.09
2018-10-07T10:14:30.252Z,18.09
2018-10-07T10:15:30.390Z,18.09
2018-10-07T10:16:30.247Z,18.12
2018-10-07T10:17:30.778Z,18.16
2018-10-07T10:18:30.519Z,18.25
2018-10-07T10:19:30.621Z,18.42
2018-10-07T10:20:30.840Z,18.49
2018-10-07T10:21:30.440Z,18.44
2018-10-07T10:22:30.343Z,18.47
2018-10-07T10:23:30.240Z,18.47
2018-10-07T10:24:30.436Z,18.52
2018-10-07T10:25:30.575Z,18.54
2018-10-07T10:26:30.243Z,18.54
2018-10-07T10:27:30.871Z,18.61
2018-10-07T10:28:30.419Z,18.72
2018-10-07T10:29:30.295Z,18.74
2018-10-07T10:30:30.364Z,18.75
2018-10-07T10:31:30.257Z,18.8
2018-10-07T10:32:30.243Z,18.8
2018-10-07T10:33:30.422Z,18.75
2018-10-07T10:34:30.229Z,18.74
2018-10-07T10:35:30.245Z,18.87
2018-10-07T10:36:30.239Z,18.85
2018-10-07T10:37:30.227Z,18.91
2018-10-07T10:38:30.220Z,19.01
2018-10-07T10:39:30.666Z,19.19
2018-10-07T10:40:30.286Z,19.25
2018-10-07T10:41:30.252Z,19.27
2018-10-07T10:42:30.364Z,19.23
2018-10-07T10:43:30.226Z,19.22
2018-10-07T10:44:30.235Z,19.19
2018-10-07T10:45:30.372Z,19.15
2018-10-07T10:46:30.230Z,19.21
2018-10-07T10:47:30.330Z,19.21
2018-10-07T10:48:30.442Z,19.27
2018-10-07T10:49:30.318Z,19.27
2018-10-07T10:50:34.614Z,19.29
2018-10-07T10:51:30.516Z,19.39
2018-10-07T10:52:30.452Z,19.39
2018-10-07T10:53:30.211Z,19.37
2018-10-07T10:54:30.358Z,19.39
2018-10-07T10:55:30.213Z,19.36
2018-10-07T10:56:30.431Z,19.37
2018-10-07T10:57:31.173Z,19.36
2018-10-07T10:58:30.323Z,19.32
2018-10-07T10:59:30.450Z,19.32
2018-10-07T11:00:30.396Z,19.46
2018-10-07T11:01:30.402Z,19.42
2018-10-07T11:02:30.259Z,19.4
2018-10-07T11:03:30.427Z,19.44
2018-10-07T11:04:30.651Z,19.46
2018-10-07T11:05:30.302Z,19.44
2018-10-07T11:06:30.338Z,19.42
2018-10-07T11:07:30.188Z,19.37
2018-10-07T11:08:30.415Z,19.37
2018-10-07T11:09:30.503Z,19.39
2018-10-07T11:10:30.499Z,19.37
2018-10-07T11:11:30.593Z,19.39
2018-10-07T11:12:30.359Z,19.39
2018-10-07T11:13:30.271Z,19.44
2018-10-07T11:14:30.224Z,19.37
2018-10-07T11:15:30.629Z,19.44
2018-10-07T11:16:30.348Z,19.47
2018-10-07T11:17:30.522Z,19.5
2018-10-07T11:18:30.343Z,19.51
2018-10-07T11:19:30.484Z,19.56
2018-10-07T11:20:30.282Z,19.6
2018-10-07T11:21:30.324Z,19.62
2018-10-07T11:22:30.360Z,19.64
2018-10-07T11:23:30.176Z,19.67
2018-10-07T11:24:30.501Z,19.65
2018-10-07T11:25:30.512Z,19.68
2018-10-07T11:26:30.360Z,19.7
2018-10-07T11:27:30.764Z,19.68
2018-10-07T11:28:30.697Z,19.68
2018-10-07T11:29:30.380Z,19.62
2018-10-07T11:30:30.267Z,19.74
2018-10-07T11:31:30.172Z,19.74
2018-10-07T11:32:30.359Z,19.72
2018-10-07T11:33:30.294Z,19.79
2018-10-07T11:34:30.193Z,19.79
2018-10-07T11:35:30.310Z,19.89
2018-10-07T11:36:30.518Z,19.86
2018-10-07T11:37:30.302Z,19.92
2018-10-07T11:38:30.295Z,19.82
2018-10-07T11:39:30.260Z,19.85
2018-10-07T11:40:30.704Z,19.95
2018-10-07T11:41:30.469Z,19.95
2018-10-07T11:42:30.363Z,19.91
2018-10-07T11:43:30.189Z,19.96
2018-10-07T11:44:30.715Z,19.95
2018-10-07T11:45:30.512Z,19.95
2018-10-07T11:46:30.220Z,19.99
2018-10-07T11:47:30.161Z,20.09
2018-10-07T11:48:30.430Z,20.17
2018-10-07T11:49:30.537Z,20.04
2018-10-07T11:50:30.225Z,20.09
2018-10-07T11:51:30.235Z,20.22
2018-10-07T11:52:30.323Z,20.32
2018-10-07T11:53:30.167Z,20.26
2018-10-07T11:54:30.541Z,20.24
2018-10-07T11:55:30.241Z,20.26
2018-10-07T11:56:30.177Z,20.23
2018-10-07T11:57:30.364Z,20.22
2018-10-07T11:58:30.164Z,20.32
2018-10-07T11:59:30.143Z,20.3
2018-10-07T12:00:30.338Z,20.32
2018-10-07T12:01:30.218Z,20.27
2018-10-07T12:02:30.261Z,20.33
2018-10-07T12:03:30.191Z,20.32
2018-10-07T12:04:30.132Z,20.36
2018-10-07T12:05:30.352Z,20.39
2018-10-07T12:06:30.219Z,20.34
2018-10-07T12:07:30.184Z,20.36
2018-10-07T12:08:30.286Z,20.32
2018-10-07T12:09:30.247Z,20.32
2018-10-07T12:10:30.110Z,20.37
2018-10-07T12:11:30.144Z,20.4
2018-10-07T12:12:30.155Z,20.41
2018-10-07T12:13:30.104Z,20.5
2018-10-07T12:14:30.150Z,20.5
2018-10-07T12:15:30.192Z,20.48
2018-10-07T12:16:30.567Z,20.57
2018-10-07T12:17:30.111Z,20.55
2018-10-07T12:18:30.147Z,20.58
2018-10-07T12:19:30.130Z,20.62
2018-10-07T12:20:30.140Z,20.68
2018-10-07T12:21:30.425Z,20.72
2018-10-07T12:22:30.098Z,20.77
2018-10-07T12:23:30.347Z,20.72
2018-10-07T12:24:30.246Z,20.71
2018-10-07T12:25:30.081Z,20.72
2018-10-07T12:26:30.416Z,20.72
2018-10-07T12:27:30.478Z,20.72
2018-10-07T12:28:30.087Z,20.71
2018-10-07T12:29:30.139Z,20.87
2018-10-07T12:30:30.489Z,20.88
2018-10-07T12:31:30.116Z,20.87
2018-10-07T12:32:30.407Z,20.84
2018-10-07T12:33:30.121Z,20.95
2018-10-07T12:34:30.091Z,20.87
2018-10-07T12:35:30.103Z,20.92
2018-10-07T12:36:30.447Z,20.94
2018-10-07T12:37:30.132Z,20.92
2018-10-07T12:38:30.071Z,20.94
2018-10-07T12:39:30.349Z,21.01
2018-10-07T12:40:30.247Z,21.01
2018-10-07T12:41:30.082Z,20.99
2018-10-07T12:42:30.361Z,20.99
2018-10-07T12:43:30.060Z,20.99
2018-10-07T12:44:30.113Z,21.02
2018-10-07T12:45:30.281Z,20.95
2018-10-07T12:46:30.182Z,21.03
2018-10-07T12:47:30.085Z,21.03
2018-10-07T12:48:30.504Z,21.03
2018-10-07T12:49:30.138Z,21.02
2018-10-07T12:50:30.617Z,21.02
2018-10-07T12:51:30.099Z,21.02
2018-10-07T12:52:30.060Z,21.02
2018-10-07T12:53:30.114Z,21.06
2018-10-07T12:54:30.399Z,21.03
2018-10-07T12:55:30.437Z,21.03